sensor_id;sensor_type;location;lat;lon;timestamp;P1;durP1;ratioP1;P2;durP2;ratioP2
27857;SDS011;16852;51.446;6.528;2024-03-07T00:01:44;43.92;;;24.35;;
27857;SDS011;16852;51.446;6.528;2024-03-07T00:03:45;40.90;;;22.70;;
27857;SDS011;16852;51.446;6.528;2024-03-07T00:05:45;44.50;;;24.88;;
27857;SDS011;16852;51.446;6.528;2024-03-07T00:07:46;46.08;;;25.85;;
27857;SDS011;16852;51.446;6.528;2024-03-07T00:09:47;46.20;;;25.35;;
27857;SDS011;16852;51.446;6.528;2024-03-07T00:11:48;48.88;;;25.05;;
27857;SDS011;16852;51.446;6.528;2024-03-07T00:13:49;47.60;;;24.27;;
27857;SDS011;16852;51.446;6.528;2024-03-07T00:15:49;46.35;;;24.15;;
27857;SDS011;16852;51.446;6.528;2024-03-07T00:17:50;40.92;;;23.58;;
27857;SDS011;16852;51.446;6.528;2024-03-07T00:19:51;41.80;;;23.35;;
27857;SDS011;16852;51.446;6.528;2024-03-07T00:21:55;42.72;;;24.45;;
27857;SDS011;16852;51.446;6.528;2024-03-07T00:23:56;42.50;;;23.45;;
27857;SDS011;16852;51.446;6.528;2024-03-07T00:25:57;44.65;;;24.33;;
27857;SDS011;16852;51.446;6.528;2024-03-07T00:27:57;44.28;;;24.17;;
27857;SDS011;16852;51.446;6.528;2024-03-07T00:30:03;44.08;;;24.88;;
27857;SDS011;16852;51.446;6.528;2024-03-07T00:32:09;42.20;;;23.10;;
27857;SDS011;16852;51.446;6.528;2024-03-07T00:34:10;40.58;;;22.90;;
27857;SDS011;16852;51.446;6.528;2024-03-07T00:36:10;41.03;;;23.65;;
27857;SDS011;16852;51.446;6.528;2024-03-07T00:38:12;44.13;;;23.42;;
27857;SDS011;16852;51.446;6.528;2024-03-07T00:40:13;45.00;;;23.48;;
27857;SDS011;16852;51.446;6.528;2024-03-07T00:42:13;45.08;;;23.60;;
27857;SDS011;16852;51.446;6.528;2024-03-07T00:44:14;42.97;;;22.25;;
27857;SDS011;16852;51.446;6.528;2024-03-07T00:46:14;44.30;;;22.80;;
27857;SDS011;16852;51.446;6.528;2024-03-07T00:48:16;37.40;;;21.63;;
27857;SDS011;16852;51.446;6.528;2024-03-07T00:50:17;42.00;;;22.23;;
27857;SDS011;16852;51.446;6.528;2024-03-07T00:52:18;38.17;;;22.45;;
27857;SDS011;16852;51.446;6.528;2024-03-07T00:54:18;41.70;;;22.17;;
27857;SDS011;16852;51.446;6.528;2024-03-07T00:56:19;40.58;;;22.90;;
27857;SDS011;16852;51.446;6.528;2024-03-07T00:58:21;40.70;;;22.77;;
27857;SDS011;16852;51.446;6.528;2024-03-07T01:00:21;43.20;;;22.60;;
27857;SDS011;16852;51.446;6.528;2024-03-07T01:02:22;44.17;;;24.27;;
27857;SDS011;16852;51.446;6.528;2024-03-07T01:04:23;46.25;;;23.08;;
27857;SDS011;16852;51.446;6.528;2024-03-07T01:06:24;39.45;;;21.35;;
27857;SDS011;16852;51.446;6.528;2024-03-07T01:08:25;40.72;;;22.92;;
27857;SDS011;16852;51.446;6.528;2024-03-07T01:10:27;43.00;;;23.33;;
27857;SDS011;16852;51.446;6.528;2024-03-07T01:12:28;39.85;;;22.52;;
27857;SDS011;16852;51.446;6.528;2024-03-07T01:14:30;41.05;;;22.58;;
27857;SDS011;16852;51.446;6.528;2024-03-07T01:16:32;46.30;;;24.02;;
27857;SDS011;16852;51.446;6.528;2024-03-07T01:18:32;39.78;;;21.63;;
27857;SDS011;16852;51.446;6.528;2024-03-07T01:20:33;41.05;;;21.85;;
27857;SDS011;16852;51.446;6.528;2024-03-07T01:22:35;43.40;;;22.88;;
27857;SDS011;16852;51.446;6.528;2024-03-07T01:24:36;45.65;;;22.98;;
27857;SDS011;16852;51.446;6.528;2024-03-07T01:26:37;48.25;;;25.17;;
27857;SDS011;16852;51.446;6.528;2024-03-07T01:28:38;49.35;;;25.63;;
27857;SDS011;16852;51.446;6.528;2024-03-07T01:30:38;46.28;;;25.23;;
27857;SDS011;16852;51.446;6.528;2024-03-07T01:32:39;44.20;;;24.38;;
27857;SDS011;16852;51.446;6.528;2024-03-07T01:34:39;46.33;;;25.67;;
27857;SDS011;16852;51.446;6.528;2024-03-07T01:36:40;42.83;;;23.80;;
27857;SDS011;16852;51.446;6.528;2024-03-07T01:38:41;46.90;;;25.40;;
27857;SDS011;16852;51.446;6.528;2024-03-07T01:40:42;51.67;;;26.80;;
27857;SDS011;16852;51.446;6.528;2024-03-07T01:42:46;47.90;;;25.75;;
27857;SDS011;16852;51.446;6.528;2024-03-07T01:44:48;52.20;;;28.10;;
27857;SDS011;16852;51.446;6.528;2024-03-07T01:46:48;47.85;;;26.10;;
27857;SDS011;16852;51.446;6.528;2024-03-07T01:48:50;47.22;;;25.45;;
27857;SDS011;16852;51.446;6.528;2024-03-07T01:50:51;44.97;;;25.00;;
27857;SDS011;16852;51.446;6.528;2024-03-07T01:52:52;45.88;;;23.70;;
27857;SDS011;16852;51.446;6.528;2024-03-07T01:54:55;47.83;;;25.20;;
27857;SDS011;16852;51.446;6.528;2024-03-07T01:56:56;46.55;;;25.08;;
27857;SDS011;16852;51.446;6.528;2024-03-07T01:58:58;51.80;;;26.47;;
27857;SDS011;16852;51.446;6.528;2024-03-07T02:01:02;51.50;;;26.67;;
27857;SDS011;16852;51.446;6.528;2024-03-07T02:03:03;47.85;;;26.67;;
27857;SDS011;16852;51.446;6.528;2024-03-07T02:05:04;50.90;;;27.45;;
27857;SDS011;16852;51.446;6.528;2024-03-07T02:07:06;50.72;;;27.13;;
27857;SDS011;16852;51.446;6.528;2024-03-07T02:09:06;53.92;;;28.23;;
27857;SDS011;16852;51.446;6.528;2024-03-07T02:11:07;53.10;;;26.80;;
27857;SDS011;16852;51.446;6.528;2024-03-07T02:13:09;51.13;;;27.48;;
27857;SDS011;16852;51.446;6.528;2024-03-07T02:15:11;46.92;;;26.65;;
27857;SDS011;16852;51.446;6.528;2024-03-07T02:19:14;70.55;;;32.10;;
27857;SDS011;16852;51.446;6.528;2024-03-07T02:21:16;56.33;;;30.02;;
27857;SDS011;16852;51.446;6.528;2024-03-07T02:23:16;54.10;;;29.52;;
27857;SDS011;16852;51.446;6.528;2024-03-07T02:25:17;63.08;;;30.20;;
27857;SDS011;16852;51.446;6.528;2024-03-07T02:27:18;56.20;;;29.75;;
27857;SDS011;16852;51.446;6.528;2024-03-07T02:29:18;53.65;;;28.48;;
27857;SDS011;16852;51.446;6.528;2024-03-07T02:31:19;54.55;;;27.67;;
27857;SDS011;16852;51.446;6.528;2024-03-07T02:33:20;54.70;;;30.25;;
27857;SDS011;16852;51.446;6.528;2024-03-07T02:35:21;62.78;;;29.42;;
27857;SDS011;16852;51.446;6.528;2024-03-07T02:37:23;50.10;;;26.85;;
27857;SDS011;16852;51.446;6.528;2024-03-07T02:39:23;51.53;;;26.77;;
27857;SDS011;16852;51.446;6.528;2024-03-07T02:41:27;45.58;;;26.10;;
27857;SDS011;16852;51.446;6.528;2024-03-07T02:43:28;48.75;;;25.60;;
27857;SDS011;16852;51.446;6.528;2024-03-07T02:45:28;46.38;;;25.92;;
27857;SDS011;16852;51.446;6.528;2024-03-07T02:47:30;44.28;;;24.95;;
27857;SDS011;16852;51.446;6.528;2024-03-07T02:49:30;44.15;;;25.25;;
27857;SDS011;16852;51.446;6.528;2024-03-07T02:51:31;46.00;;;26.13;;
27857;SDS011;16852;51.446;6.528;2024-03-07T02:53:32;51.15;;;26.67;;
27857;SDS011;16852;51.446;6.528;2024-03-07T02:55:32;54.47;;;26.58;;
27857;SDS011;16852;51.446;6.528;2024-03-07T02:57:34;47.50;;;26.38;;
27857;SDS011;16852;51.446;6.528;2024-03-07T02:59:34;56.45;;;29.55;;
27857;SDS011;16852;51.446;6.528;2024-03-07T03:01:35;55.53;;;29.25;;
27857;SDS011;16852;51.446;6.528;2024-03-07T03:03:35;56.95;;;30.38;;
27857;SDS011;16852;51.446;6.528;2024-03-07T03:05:36;53.67;;;28.88;;
27857;SDS011;16852;51.446;6.528;2024-03-07T03:07:36;52.45;;;28.33;;
27857;SDS011;16852;51.446;6.528;2024-03-07T03:09:37;61.05;;;30.63;;
27857;SDS011;16852;51.446;6.528;2024-03-07T03:11:43;58.83;;;32.38;;
27857;SDS011;16852;51.446;6.528;2024-03-07T03:13:44;61.37;;;31.70;;
27857;SDS011;16852;51.446;6.528;2024-03-07T03:15:46;59.60;;;31.83;;
27857;SDS011;16852;51.446;6.528;2024-03-07T03:17:47;51.58;;;28.95;;
27857;SDS011;16852;51.446;6.528;2024-03-07T03:19:48;59.72;;;31.60;;
27857;SDS011;16852;51.446;6.528;2024-03-07T03:21:50;61.53;;;32.15;;
27857;SDS011;16852;51.446;6.528;2024-03-07T03:23:50;51.55;;;29.50;;
27857;SDS011;16852;51.446;6.528;2024-03-07T03:25:53;55.80;;;30.15;;
27857;SDS011;16852;51.446;6.528;2024-03-07T03:27:55;53.88;;;29.75;;
27857;SDS011;16852;51.446;6.528;2024-03-07T03:29:55;58.55;;;29.85;;
27857;SDS011;16852;51.446;6.528;2024-03-07T03:31:56;54.47;;;28.83;;
27857;SDS011;16852;51.446;6.528;2024-03-07T03:33:56;55.80;;;29.05;;
27857;SDS011;16852;51.446;6.528;2024-03-07T03:35:57;54.05;;;29.25;;
27857;SDS011;16852;51.446;6.528;2024-03-07T03:37:59;52.05;;;27.55;;
27857;SDS011;16852;51.446;6.528;2024-03-07T03:40:00;49.10;;;27.98;;
27857;SDS011;16852;51.446;6.528;2024-03-07T03:42:00;47.30;;;27.00;;
27857;SDS011;16852;51.446;6.528;2024-03-07T03:44:01;51.53;;;27.40;;
27857;SDS011;16852;51.446;6.528;2024-03-07T03:46:03;46.00;;;26.13;;
27857;SDS011;16852;51.446;6.528;2024-03-07T03:48:04;49.65;;;26.40;;
27857;SDS011;16852;51.446;6.528;2024-03-07T03:50:05;48.03;;;26.70;;
27857;SDS011;16852;51.446;6.528;2024-03-07T03:52:07;48.40;;;26.85;;
27857;SDS011;16852;51.446;6.528;2024-03-07T03:54:08;45.47;;;26.23;;
27857;SDS011;16852;51.446;6.528;2024-03-07T03:56:10;47.20;;;26.45;;
27857;SDS011;16852;51.446;6.528;2024-03-07T03:58:12;49.05;;;28.02;;
27857;SDS011;16852;51.446;6.528;2024-03-07T04:00:12;49.65;;;26.35;;
27857;SDS011;16852;51.446;6.528;2024-03-07T04:02:13;49.53;;;27.48;;
27857;SDS011;16852;51.446;6.528;2024-03-07T04:04:14;51.33;;;28.55;;
27857;SDS011;16852;51.446;6.528;2024-03-07T04:06:14;56.17;;;29.98;;
27857;SDS011;16852;51.446;6.528;2024-03-07T04:08:15;49.88;;;26.40;;
27857;SDS011;16852;51.446;6.528;2024-03-07T04:10:16;43.63;;;24.65;;
27857;SDS011;16852;51.446;6.528;2024-03-07T04:12:18;43.20;;;23.47;;
27857;SDS011;16852;51.446;6.528;2024-03-07T04:14:19;51.38;;;25.20;;
27857;SDS011;16852;51.446;6.528;2024-03-07T04:16:20;49.20;;;26.38;;
27857;SDS011;16852;51.446;6.528;2024-03-07T04:18:20;45.30;;;26.42;;
27857;SDS011;16852;51.446;6.528;2024-03-07T04:20:21;47.47;;;26.05;;
27857;SDS011;16852;51.446;6.528;2024-03-07T04:22:22;48.92;;;27.15;;
27857;SDS011;16852;51.446;6.528;2024-03-07T04:24:23;46.38;;;26.42;;
27857;SDS011;16852;51.446;6.528;2024-03-07T04:26:23;48.50;;;26.67;;
27857;SDS011;16852;51.446;6.528;2024-03-07T04:28:24;49.60;;;28.45;;
27857;SDS011;16852;51.446;6.528;2024-03-07T04:30:24;53.83;;;28.65;;
27857;SDS011;16852;51.446;6.528;2024-03-07T04:32:25;54.65;;;27.75;;
27857;SDS011;16852;51.446;6.528;2024-03-07T04:34:25;51.58;;;28.42;;
27857;SDS011;16852;51.446;6.528;2024-03-07T04:36:27;47.60;;;27.05;;
27857;SDS011;16852;51.446;6.528;2024-03-07T04:38:28;50.60;;;27.35;;
27857;SDS011;16852;51.446;6.528;2024-03-07T04:40:29;46.75;;;25.65;;
27857;SDS011;16852;51.446;6.528;2024-03-07T04:42:29;49.35;;;26.10;;
27857;SDS011;16852;51.446;6.528;2024-03-07T04:44:30;47.15;;;27.48;;
27857;SDS011;16852;51.446;6.528;2024-03-07T04:46:31;43.17;;;25.77;;
27857;SDS011;16852;51.446;6.528;2024-03-07T04:48:32;50.15;;;25.95;;
27857;SDS011;16852;51.446;6.528;2024-03-07T04:50:32;43.85;;;25.08;;
27857;SDS011;16852;51.446;6.528;2024-03-07T04:52:33;43.45;;;23.58;;
27857;SDS011;16852;51.446;6.528;2024-03-07T04:54:34;43.88;;;24.85;;
27857;SDS011;16852;51.446;6.528;2024-03-07T04:56:35;44.25;;;24.83;;
27857;SDS011;16852;51.446;6.528;2024-03-07T04:58:35;46.75;;;25.80;;
27857;SDS011;16852;51.446;6.528;2024-03-07T05:00:36;46.88;;;25.73;;
27857;SDS011;16852;51.446;6.528;2024-03-07T05:02:36;47.15;;;26.38;;
27857;SDS011;16852;51.446;6.528;2024-03-07T05:04:37;45.22;;;27.15;;
27857;SDS011;16852;51.446;6.528;2024-03-07T05:06:38;51.20;;;27.30;;
27857;SDS011;16852;51.446;6.528;2024-03-07T05:08:39;54.35;;;28.83;;
27857;SDS011;16852;51.446;6.528;2024-03-07T05:10:39;51.88;;;28.40;;
27857;SDS011;16852;51.446;6.528;2024-03-07T05:12:41;51.53;;;28.30;;
27857;SDS011;16852;51.446;6.528;2024-03-07T05:14:42;50.20;;;28.60;;
27857;SDS011;16852;51.446;6.528;2024-03-07T05:16:42;49.88;;;28.35;;
27857;SDS011;16852;51.446;6.528;2024-03-07T05:18:43;53.33;;;27.88;;
27857;SDS011;16852;51.446;6.528;2024-03-07T05:20:44;61.35;;;31.23;;
27857;SDS011;16852;51.446;6.528;2024-03-07T05:22:44;58.83;;;31.38;;
27857;SDS011;16852;51.446;6.528;2024-03-07T05:24:50;58.20;;;31.10;;
27857;SDS011;16852;51.446;6.528;2024-03-07T05:26:51;56.53;;;29.88;;
27857;SDS011;16852;51.446;6.528;2024-03-07T05:28:53;53.22;;;29.95;;
27857;SDS011;16852;51.446;6.528;2024-03-07T05:30:56;54.85;;;30.58;;
27857;SDS011;16852;51.446;6.528;2024-03-07T05:32:57;52.55;;;29.17;;
27857;SDS011;16852;51.446;6.528;2024-03-07T05:34:58;54.58;;;31.83;;
27857;SDS011;16852;51.446;6.528;2024-03-07T05:36:59;52.05;;;28.42;;
27857;SDS011;16852;51.446;6.528;2024-03-07T05:38:59;58.40;;;31.70;;
27857;SDS011;16852;51.446;6.528;2024-03-07T05:41:01;51.92;;;29.83;;
27857;SDS011;16852;51.446;6.528;2024-03-07T05:43:01;57.55;;;31.23;;
27857;SDS011;16852;51.446;6.528;2024-03-07T05:45:02;55.90;;;29.75;;
27857;SDS011;16852;51.446;6.528;2024-03-07T05:47:05;50.97;;;28.88;;
27857;SDS011;16852;51.446;6.528;2024-03-07T05:49:08;51.97;;;28.30;;
27857;SDS011;16852;51.446;6.528;2024-03-07T05:51:08;50.17;;;28.05;;
27857;SDS011;16852;51.446;6.528;2024-03-07T05:53:10;44.17;;;26.33;;
27857;SDS011;16852;51.446;6.528;2024-03-07T05:55:11;59.55;;;30.05;;
27857;SDS011;16852;51.446;6.528;2024-03-07T05:57:12;50.85;;;27.75;;
27857;SDS011;16852;51.446;6.528;2024-03-07T05:59:13;49.97;;;28.27;;
27857;SDS011;16852;51.446;6.528;2024-03-07T06:01:14;48.38;;;27.30;;
27857;SDS011;16852;51.446;6.528;2024-03-07T06:03:19;46.13;;;27.45;;
27857;SDS011;16852;51.446;6.528;2024-03-07T06:05:19;51.30;;;27.40;;
27857;SDS011;16852;51.446;6.528;2024-03-07T06:07:20;49.63;;;28.65;;
27857;SDS011;16852;51.446;6.528;2024-03-07T06:09:21;44.95;;;26.08;;
27857;SDS011;16852;51.446;6.528;2024-03-07T06:11:21;46.70;;;25.98;;
27857;SDS011;16852;51.446;6.528;2024-03-07T06:13:22;49.67;;;28.55;;
27857;SDS011;16852;51.446;6.528;2024-03-07T06:15:22;52.03;;;28.98;;
27857;SDS011;16852;51.446;6.528;2024-03-07T06:17:24;44.27;;;25.73;;
27857;SDS011;16852;51.446;6.528;2024-03-07T06:19:25;45.80;;;25.83;;
27857;SDS011;16852;51.446;6.528;2024-03-07T06:21:25;49.50;;;28.65;;
27857;SDS011;16852;51.446;6.528;2024-03-07T06:23:26;49.20;;;28.30;;
27857;SDS011;16852;51.446;6.528;2024-03-07T06:25:28;50.95;;;29.85;;
27857;SDS011;16852;51.446;6.528;2024-03-07T06:27:50;58.80;;;32.75;;
27857;SDS011;16852;51.446;6.528;2024-03-07T06:29:52;53.70;;;29.92;;
27857;SDS011;16852;51.446;6.528;2024-03-07T06:31:53;59.30;;;30.38;;
27857;SDS011;16852;51.446;6.528;2024-03-07T06:33:54;58.33;;;32.08;;
27857;SDS011;16852;51.446;6.528;2024-03-07T06:35:55;58.17;;;31.67;;
27857;SDS011;16852;51.446;6.528;2024-03-07T06:37:56;57.60;;;29.90;;
27857;SDS011;16852;51.446;6.528;2024-03-07T06:39:56;54.20;;;31.05;;
27857;SDS011;16852;51.446;6.528;2024-03-07T06:41:57;51.40;;;30.55;;
27857;SDS011;16852;51.446;6.528;2024-03-07T06:43:57;55.55;;;30.60;;
27857;SDS011;16852;51.446;6.528;2024-03-07T06:45:58;51.28;;;29.67;;
27857;SDS011;16852;51.446;6.528;2024-03-07T06:47:58;52.42;;;30.38;;
27857;SDS011;16852;51.446;6.528;2024-03-07T06:50:00;58.97;;;29.40;;
27857;SDS011;16852;51.446;6.528;2024-03-07T06:52:00;54.33;;;30.50;;
27857;SDS011;16852;51.446;6.528;2024-03-07T06:54:01;52.72;;;29.40;;
27857;SDS011;16852;51.446;6.528;2024-03-07T06:56:01;55.90;;;29.23;;
27857;SDS011;16852;51.446;6.528;2024-03-07T06:58:02;52.17;;;29.52;;
27857;SDS011;16852;51.446;6.528;2024-03-07T07:00:06;54.08;;;30.90;;
27857;SDS011;16852;51.446;6.528;2024-03-07T07:02:11;53.10;;;29.17;;
27857;SDS011;16852;51.446;6.528;2024-03-07T07:04:12;49.78;;;27.90;;
27857;SDS011;16852;51.446;6.528;2024-03-07T07:06:15;50.08;;;27.95;;
27857;SDS011;16852;51.446;6.528;2024-03-07T07:08:16;50.05;;;29.27;;
27857;SDS011;16852;51.446;6.528;2024-03-07T07:10:16;56.08;;;30.70;;
27857;SDS011;16852;51.446;6.528;2024-03-07T07:12:23;46.85;;;28.13;;
27857;SDS011;16852;51.446;6.528;2024-03-07T07:14:24;48.28;;;27.52;;
27857;SDS011;16852;51.446;6.528;2024-03-07T07:16:24;49.05;;;28.48;;
27857;SDS011;16852;51.446;6.528;2024-03-07T07:18:25;46.38;;;27.15;;
27857;SDS011;16852;51.446;6.528;2024-03-07T07:20:26;50.78;;;27.35;;
27857;SDS011;16852;51.446;6.528;2024-03-07T07:22:27;45.92;;;27.00;;
27857;SDS011;16852;51.446;6.528;2024-03-07T07:24:27;48.42;;;26.38;;
27857;SDS011;16852;51.446;6.528;2024-03-07T07:26:30;46.08;;;25.83;;
27857;SDS011;16852;51.446;6.528;2024-03-07T07:28:32;40.17;;;25.63;;
27857;SDS011;16852;51.446;6.528;2024-03-07T07:30:33;42.03;;;24.02;;
27857;SDS011;16852;51.446;6.528;2024-03-07T07:32:34;40.45;;;24.10;;
27857;SDS011;16852;51.446;6.528;2024-03-07T07:34:35;41.50;;;25.00;;
27857;SDS011;16852;51.446;6.528;2024-03-07T07:36:36;41.85;;;24.70;;
27857;SDS011;16852;51.446;6.528;2024-03-07T07:38:36;42.00;;;25.23;;
27857;SDS011;16852;51.446;6.528;2024-03-07T07:40:37;39.58;;;23.48;;
27857;SDS011;16852;51.446;6.528;2024-03-07T07:42:39;43.35;;;25.25;;
27857;SDS011;16852;51.446;6.528;2024-03-07T07:44:39;40.97;;;23.83;;
27857;SDS011;16852;51.446;6.528;2024-03-07T07:46:40;39.38;;;24.63;;
27857;SDS011;16852;51.446;6.528;2024-03-07T07:48:41;41.53;;;25.63;;
27857;SDS011;16852;51.446;6.528;2024-03-07T07:50:41;44.13;;;24.63;;
27857;SDS011;16852;51.446;6.528;2024-03-07T07:52:42;42.78;;;24.08;;
27857;SDS011;16852;51.446;6.528;2024-03-07T07:54:43;40.90;;;24.60;;
27857;SDS011;16852;51.446;6.528;2024-03-07T07:56:44;43.65;;;24.63;;
27857;SDS011;16852;51.446;6.528;2024-03-07T07:58:44;39.33;;;24.60;;
27857;SDS011;16852;51.446;6.528;2024-03-07T08:00:46;45.25;;;25.75;;
27857;SDS011;16852;51.446;6.528;2024-03-07T08:04:54;41.55;;;25.65;;
27857;SDS011;16852;51.446;6.528;2024-03-07T08:06:54;43.90;;;24.42;;
27857;SDS011;16852;51.446;6.528;2024-03-07T08:08:55;40.10;;;23.23;;
27857;SDS011;16852;51.446;6.528;2024-03-07T08:10:56;37.97;;;23.05;;
27857;SDS011;16852;51.446;6.528;2024-03-07T08:12:57;38.67;;;23.15;;
27857;SDS011;16852;51.446;6.528;2024-03-07T08:14:58;35.47;;;21.63;;
27857;SDS011;16852;51.446;6.528;2024-03-07T08:16:58;37.40;;;22.17;;
27857;SDS011;16852;51.446;6.528;2024-03-07T08:18:59;35.40;;;21.15;;
27857;SDS011;16852;51.446;6.528;2024-03-07T08:21:00;34.45;;;22.05;;
27857;SDS011;16852;51.446;6.528;2024-03-07T08:23:00;33.53;;;20.98;;
27857;SDS011;16852;51.446;6.528;2024-03-07T08:25:01;38.15;;;22.52;;
27857;SDS011;16852;51.446;6.528;2024-03-07T08:27:04;33.63;;;20.83;;
27857;SDS011;16852;51.446;6.528;2024-03-07T08:29:05;33.97;;;20.30;;
27857;SDS011;16852;51.446;6.528;2024-03-07T08:31:06;35.92;;;20.60;;
27857;SDS011;16852;51.446;6.528;2024-03-07T08:33:06;30.95;;;19.95;;
27857;SDS011;16852;51.446;6.528;2024-03-07T08:35:08;34.30;;;19.88;;
27857;SDS011;16852;51.446;6.528;2024-03-07T08:37:09;34.38;;;19.75;;
27857;SDS011;16852;51.446;6.528;2024-03-07T08:39:10;33.65;;;20.48;;
27857;SDS011;16852;51.446;6.528;2024-03-07T08:41:11;31.05;;;18.58;;
27857;SDS011;16852;51.446;6.528;2024-03-07T08:43:11;35.40;;;20.65;;
27857;SDS011;16852;51.446;6.528;2024-03-07T08:45:12;28.95;;;17.98;;
27857;SDS011;16852;51.446;6.528;2024-03-07T08:47:17;28.13;;;17.77;;
27857;SDS011;16852;51.446;6.528;2024-03-07T08:49:17;31.67;;;19.23;;
27857;SDS011;16852;51.446;6.528;2024-03-07T08:51:18;34.30;;;21.05;;
27857;SDS011;16852;51.446;6.528;2024-03-07T08:53:19;30.02;;;18.48;;
27857;SDS011;16852;51.446;6.528;2024-03-07T08:55:20;30.90;;;18.38;;
27857;SDS011;16852;51.446;6.528;2024-03-07T08:57:22;29.65;;;19.60;;
27857;SDS011;16852;51.446;6.528;2024-03-07T08:59:23;32.17;;;19.63;;
27857;SDS011;16852;51.446;6.528;2024-03-07T09:01:23;32.67;;;19.67;;
27857;SDS011;16852;51.446;6.528;2024-03-07T09:03:24;29.77;;;18.83;;
27857;SDS011;16852;51.446;6.528;2024-03-07T09:05:25;31.00;;;19.50;;
27857;SDS011;16852;51.446;6.528;2024-03-07T09:07:27;29.23;;;18.05;;
27857;SDS011;16852;51.446;6.528;2024-03-07T09:09:29;31.38;;;18.98;;
27857;SDS011;16852;51.446;6.528;2024-03-07T09:11:29;33.10;;;18.75;;
27857;SDS011;16852;51.446;6.528;2024-03-07T09:13:30;30.60;;;19.00;;
27857;SDS011;16852;51.446;6.528;2024-03-07T09:15:31;30.38;;;19.48;;
27857;SDS011;16852;51.446;6.528;2024-03-07T09:17:33;28.55;;;17.75;;
27857;SDS011;16852;51.446;6.528;2024-03-07T09:19:34;36.72;;;19.85;;
27857;SDS011;16852;51.446;6.528;2024-03-07T09:21:34;30.17;;;19.38;;
27857;SDS011;16852;51.446;6.528;2024-03-07T09:23:35;29.13;;;17.77;;
27857;SDS011;16852;51.446;6.528;2024-03-07T09:25:35;26.15;;;16.88;;
27857;SDS011;16852;51.446;6.528;2024-03-07T09:27:36;31.83;;;16.95;;
27857;SDS011;16852;51.446;6.528;2024-03-07T09:29:37;36.60;;;17.55;;
27857;SDS011;16852;51.446;6.528;2024-03-07T09:31:38;25.83;;;16.15;;
27857;SDS011;16852;51.446;6.528;2024-03-07T09:33:40;28.80;;;17.67;;
27857;SDS011;16852;51.446;6.528;2024-03-07T09:35:40;31.50;;;18.08;;
27857;SDS011;16852;51.446;6.528;2024-03-07T09:37:41;29.30;;;16.90;;
27857;SDS011;16852;51.446;6.528;2024-03-07T09:39:43;32.87;;;17.80;;
27857;SDS011;16852;51.446;6.528;2024-03-07T09:41:43;29.00;;;15.18;;
27857;SDS011;16852;51.446;6.528;2024-03-07T09:43:45;25.85;;;15.13;;
27857;SDS011;16852;51.446;6.528;2024-03-07T09:45:47;29.17;;;16.70;;
27857;SDS011;16852;51.446;6.528;2024-03-07T09:47:49;28.50;;;16.75;;
27857;SDS011;16852;51.446;6.528;2024-03-07T09:49:51;25.20;;;15.18;;
27857;SDS011;16852;51.446;6.528;2024-03-07T09:51:53;21.27;;;13.80;;
27857;SDS011;16852;51.446;6.528;2024-03-07T09:53:56;21.95;;;14.05;;
27857;SDS011;16852;51.446;6.528;2024-03-07T09:55:59;22.70;;;13.23;;
27857;SDS011;16852;51.446;6.528;2024-03-07T09:58:01;23.37;;;14.07;;
27857;SDS011;16852;51.446;6.528;2024-03-07T10:00:04;25.42;;;14.77;;
27857;SDS011;16852;51.446;6.528;2024-03-07T10:02:07;25.42;;;15.07;;
27857;SDS011;16852;51.446;6.528;2024-03-07T10:04:11;23.15;;;15.10;;
27857;SDS011;16852;51.446;6.528;2024-03-07T10:06:14;25.65;;;15.07;;
27857;SDS011;16852;51.446;6.528;2024-03-07T10:08:15;25.23;;;14.50;;
27857;SDS011;16852;51.446;6.528;2024-03-07T10:10:16;23.67;;;14.55;;
27857;SDS011;16852;51.446;6.528;2024-03-07T10:12:17;27.42;;;14.98;;
27857;SDS011;16852;51.446;6.528;2024-03-07T10:14:18;25.00;;;15.73;;
27857;SDS011;16852;51.446;6.528;2024-03-07T10:16:19;23.95;;;14.80;;
27857;SDS011;16852;51.446;6.528;2024-03-07T10:18:20;25.33;;;15.13;;
27857;SDS011;16852;51.446;6.528;2024-03-07T10:20:22;24.35;;;13.45;;
27857;SDS011;16852;51.446;6.528;2024-03-07T10:22:24;24.97;;;13.90;;
27857;SDS011;16852;51.446;6.528;2024-03-07T10:24:25;22.75;;;13.07;;
27857;SDS011;16852;51.446;6.528;2024-03-07T10:26:25;25.70;;;14.38;;
27857;SDS011;16852;51.446;6.528;2024-03-07T10:28:27;23.98;;;14.40;;
27857;SDS011;16852;51.446;6.528;2024-03-07T10:30:28;27.90;;;16.77;;
27857;SDS011;16852;51.446;6.528;2024-03-07T10:32:29;28.50;;;15.85;;
27857;SDS011;16852;51.446;6.528;2024-03-07T10:34:33;27.00;;;15.88;;
27857;SDS011;16852;51.446;6.528;2024-03-07T10:36:34;26.33;;;16.10;;
27857;SDS011;16852;51.446;6.528;2024-03-07T10:38:38;22.33;;;14.70;;
27857;SDS011;16852;51.446;6.528;2024-03-07T10:40:39;24.17;;;14.55;;
27857;SDS011;16852;51.446;6.528;2024-03-07T10:42:46;26.92;;;15.68;;
27857;SDS011;16852;51.446;6.528;2024-03-07T10:44:51;25.33;;;15.43;;
27857;SDS011;16852;51.446;6.528;2024-03-07T10:46:59;24.60;;;15.15;;
27857;SDS011;16852;51.446;6.528;2024-03-07T10:49:03;30.80;;;16.52;;
27857;SDS011;16852;51.446;6.528;2024-03-07T10:51:21;25.65;;;15.05;;
27857;SDS011;16852;51.446;6.528;2024-03-07T10:56:03;32.88;;;16.85;;
27857;SDS011;16852;51.446;6.528;2024-03-07T10:58:33;25.15;;;15.15;;
27857;SDS011;16852;51.446;6.528;2024-03-07T11:00:42;23.15;;;14.30;;
27857;SDS011;16852;51.446;6.528;2024-03-07T11:02:48;26.52;;;15.98;;
27857;SDS011;16852;51.446;6.528;2024-03-07T11:04:53;22.60;;;13.55;;
27857;SDS011;16852;51.446;6.528;2024-03-07T11:06:55;29.27;;;15.73;;
27857;SDS011;16852;51.446;6.528;2024-03-07T11:08:58;28.65;;;14.75;;
27857;SDS011;16852;51.446;6.528;2024-03-07T11:11:01;29.92;;;17.80;;
27857;SDS011;16852;51.446;6.528;2024-03-07T11:13:01;29.08;;;14.75;;
27857;SDS011;16852;51.446;6.528;2024-03-07T11:15:04;26.10;;;14.63;;
27857;SDS011;16852;51.446;6.528;2024-03-07T11:17:14;23.45;;;13.98;;
27857;SDS011;16852;51.446;6.528;2024-03-07T11:19:19;26.80;;;13.60;;
27857;SDS011;16852;51.446;6.528;2024-03-07T11:21:40;26.60;;;14.95;;
27857;SDS011;16852;51.446;6.528;2024-03-07T11:23:41;28.23;;;14.73;;
27857;SDS011;16852;51.446;6.528;2024-03-07T11:25:45;25.50;;;15.10;;
27857;SDS011;16852;51.446;6.528;2024-03-07T11:27:57;23.20;;;14.27;;
27857;SDS011;16852;51.446;6.528;2024-03-07T11:30:04;25.20;;;14.20;;
27857;SDS011;16852;51.446;6.528;2024-03-07T11:32:08;25.55;;;14.23;;
27857;SDS011;16852;51.446;6.528;2024-03-07T11:36:42;25.33;;;15.05;;
27857;SDS011;16852;51.446;6.528;2024-03-07T11:38:49;27.20;;;15.00;;
27857;SDS011;16852;51.446;6.528;2024-03-07T11:40:51;25.27;;;14.25;;
27857;SDS011;16852;51.446;6.528;2024-03-07T11:42:53;26.98;;;15.90;;
27857;SDS011;16852;51.446;6.528;2024-03-07T11:44:54;23.90;;;14.63;;
27857;SDS011;16852;51.446;6.528;2024-03-07T11:46:56;24.55;;;14.98;;
27857;SDS011;16852;51.446;6.528;2024-03-07T11:48:57;27.30;;;16.92;;
27857;SDS011;16852;51.446;6.528;2024-03-07T11:50:59;25.98;;;15.18;;
27857;SDS011;16852;51.446;6.528;2024-03-07T11:53:00;24.40;;;14.50;;
27857;SDS011;16852;51.446;6.528;2024-03-07T11:55:02;21.45;;;12.82;;
27857;SDS011;16852;51.446;6.528;2024-03-07T11:57:03;21.70;;;12.33;;
27857;SDS011;16852;51.446;6.528;2024-03-07T11:59:12;31.52;;;15.25;;
27857;SDS011;16852;51.446;6.528;2024-03-07T12:01:13;23.90;;;14.88;;